Perryville, New York
Current Conditions -  °F | °C
As of 9:34 PM on Tuesday 21 Oct 2014 (Local Time) from KSYR Reporting Station
Light Rain Light Rain  
Wind Chill: 52°   Ceiling: 500
Heat Index: 52°   Visibility: 4mi
Dew Point: 51°   Wind: 0mph
Humidity: 97%   Direction: NA
Pressure: 29.99"   Gusts: NA
Location:  43.0803°N, 75.7643°W
Report Text: KSYR 220134Z 00000KT 4SM -RA BR BKN005 OVC010 11/11 A2999 RMK T01100105
Loading
Personal Weather Stations






























Interactive Weather Map
Tropical Storm Tracking
New forecast layout! Learn more

10-Day Weather Forecast

Advertisements
Track Severe Weather on mobile